sensor_id;sensor_type;location;lat;lon;timestamp;P1;durP1;ratioP1;P2;durP2;ratioP2
30850;SDS011;17567;48.382;9.102;2023-06-24T00:02:28;6.53;;;6.03;;
30850;SDS011;17567;48.382;9.102;2023-06-24T00:07:29;6.33;;;5.57;;
30850;SDS011;17567;48.382;9.102;2023-06-24T00:12:30;7.63;;;6.47;;
30850;SDS011;17567;48.382;9.102;2023-06-24T00:17:30;6.80;;;6.10;;
30850;SDS011;17567;48.382;9.102;2023-06-24T00:22:31;6.00;;;5.50;;
30850;SDS011;17567;48.382;9.102;2023-06-24T00:27:31;6.93;;;6.23;;
30850;SDS011;17567;48.382;9.102;2023-06-24T00:32:32;7.17;;;6.47;;
30850;SDS011;17567;48.382;9.102;2023-06-24T00:37:33;9.60;;;5.73;;
30850;SDS011;17567;48.382;9.102;2023-06-24T00:42:33;5.87;;;5.30;;
30850;SDS011;17567;48.382;9.102;2023-06-24T00:47:34;11.47;;;6.70;;
30850;SDS011;17567;48.382;9.102;2023-06-24T00:52:34;6.17;;;5.67;;
30850;SDS011;17567;48.382;9.102;2023-06-24T00:57:40;8.60;;;6.73;;
30850;SDS011;17567;48.382;9.102;2023-06-24T01:02:42;7.40;;;6.60;;
30850;SDS011;17567;48.382;9.102;2023-06-24T01:07:43;6.27;;;5.67;;
30850;SDS011;17567;48.382;9.102;2023-06-24T01:12:44;6.30;;;5.70;;
30850;SDS011;17567;48.382;9.102;2023-06-24T01:23:05;6.73;;;6.00;;
30850;SDS011;17567;48.382;9.102;2023-06-24T01:33:49;7.03;;;6.10;;
30850;SDS011;17567;48.382;9.102;2023-06-24T01:39:03;11.63;;;6.27;;
30850;SDS011;17567;48.382;9.102;2023-06-24T01:44:10;6.00;;;5.43;;
30850;SDS011;17567;48.382;9.102;2023-06-24T01:49:14;7.67;;;6.13;;
30850;SDS011;17567;48.382;9.102;2023-06-24T01:54:17;9.40;;;6.80;;
30850;SDS011;17567;48.382;9.102;2023-06-24T01:59:20;6.57;;;5.67;;
30850;SDS011;17567;48.382;9.102;2023-06-24T02:04:22;7.40;;;5.47;;
30850;SDS011;17567;48.382;9.102;2023-06-24T02:09:24;9.47;;;5.33;;
30850;SDS011;17567;48.382;9.102;2023-06-24T02:14:26;6.60;;;5.67;;
30850;SDS011;17567;48.382;9.102;2023-06-24T02:19:29;6.73;;;6.00;;
30850;SDS011;17567;48.382;9.102;2023-06-24T02:24:30;7.90;;;6.00;;
30850;SDS011;17567;48.382;9.102;2023-06-24T02:29:31;7.07;;;5.13;;
30850;SDS011;17567;48.382;9.102;2023-06-24T02:34:34;6.10;;;5.60;;
30850;SDS011;17567;48.382;9.102;2023-06-24T02:39:34;8.07;;;5.50;;
30850;SDS011;17567;48.382;9.102;2023-06-24T02:44:40;6.47;;;5.67;;
30850;SDS011;17567;48.382;9.102;2023-06-24T02:49:42;6.07;;;5.47;;
30850;SDS011;17567;48.382;9.102;2023-06-24T02:54:46;8.33;;;5.57;;
30850;SDS011;17567;48.382;9.102;2023-06-24T02:59:47;10.67;;;5.47;;
30850;SDS011;17567;48.382;9.102;2023-06-24T03:04:48;6.37;;;5.53;;
30850;SDS011;17567;48.382;9.102;2023-06-24T03:09:50;7.37;;;5.93;;
30850;SDS011;17567;48.382;9.102;2023-06-24T03:14:51;9.17;;;6.00;;
30850;SDS011;17567;48.382;9.102;2023-06-24T03:19:52;5.97;;;5.10;;
30850;SDS011;17567;48.382;9.102;2023-06-24T03:24:52;8.50;;;5.57;;
30850;SDS011;17567;48.382;9.102;2023-06-24T03:29:53;5.73;;;5.00;;
30850;SDS011;17567;48.382;9.102;2023-06-24T03:34:54;5.63;;;5.03;;
30850;SDS011;17567;48.382;9.102;2023-06-24T03:39:55;5.50;;;4.93;;
30850;SDS011;17567;48.382;9.102;2023-06-24T03:44:56;5.43;;;4.80;;
30850;SDS011;17567;48.382;9.102;2023-06-24T03:49:57;7.30;;;6.30;;
30850;SDS011;17567;48.382;9.102;2023-06-24T03:54:58;5.30;;;4.80;;
30850;SDS011;17567;48.382;9.102;2023-06-24T03:59:58;5.57;;;5.07;;
30850;SDS011;17567;48.382;9.102;2023-06-24T04:04:59;5.37;;;4.87;;
30850;SDS011;17567;48.382;9.102;2023-06-24T04:09:59;6.53;;;5.40;;
30850;SDS011;17567;48.382;9.102;2023-06-24T04:15:01;5.20;;;4.70;;
30850;SDS011;17567;48.382;9.102;2023-06-24T04:20:05;5.77;;;5.17;;
30850;SDS011;17567;48.382;9.102;2023-06-24T04:25:09;6.33;;;5.60;;
30850;SDS011;17567;48.382;9.102;2023-06-24T04:30:11;5.73;;;5.23;;
30850;SDS011;17567;48.382;9.102;2023-06-24T04:35:12;7.97;;;6.00;;
30850;SDS011;17567;48.382;9.102;2023-06-24T04:40:13;5.93;;;5.17;;
30850;SDS011;17567;48.382;9.102;2023-06-24T04:45:14;6.00;;;5.50;;
30850;SDS011;17567;48.382;9.102;2023-06-24T04:50:15;6.27;;;5.27;;
30850;SDS011;17567;48.382;9.102;2023-06-24T04:55:15;5.00;;;4.60;;
30850;SDS011;17567;48.382;9.102;2023-06-24T05:00:16;5.87;;;5.37;;
30850;SDS011;17567;48.382;9.102;2023-06-24T05:05:17;4.97;;;4.57;;
30850;SDS011;17567;48.382;9.102;2023-06-24T05:10:17;6.00;;;5.47;;
30850;SDS011;17567;48.382;9.102;2023-06-24T05:15:18;5.53;;;5.03;;
30850;SDS011;17567;48.382;9.102;2023-06-24T05:20:19;6.60;;;5.60;;
30850;SDS011;17567;48.382;9.102;2023-06-24T05:25:21;6.13;;;5.53;;
30850;SDS011;17567;48.382;9.102;2023-06-24T05:30:22;5.40;;;4.93;;
30850;SDS011;17567;48.382;9.102;2023-06-24T05:35:23;5.60;;;5.10;;
30850;SDS011;17567;48.382;9.102;2023-06-24T05:40:23;5.87;;;4.77;;
30850;SDS011;17567;48.382;9.102;2023-06-24T05:45:24;8.80;;;5.40;;
30850;SDS011;17567;48.382;9.102;2023-06-24T05:50:25;5.67;;;5.17;;
30850;SDS011;17567;48.382;9.102;2023-06-24T05:55:25;5.90;;;4.70;;
30850;SDS011;17567;48.382;9.102;2023-06-24T06:00:26;5.30;;;4.67;;
30850;SDS011;17567;48.382;9.102;2023-06-24T06:05:26;5.03;;;4.50;;
30850;SDS011;17567;48.382;9.102;2023-06-24T06:10:27;5.40;;;4.80;;
30850;SDS011;17567;48.382;9.102;2023-06-24T06:15:28;4.97;;;4.57;;
30850;SDS011;17567;48.382;9.102;2023-06-24T06:20:28;4.47;;;4.07;;
30850;SDS011;17567;48.382;9.102;2023-06-24T06:25:29;5.20;;;4.77;;
30850;SDS011;17567;48.382;9.102;2023-06-24T06:30:30;4.53;;;3.83;;
30850;SDS011;17567;48.382;9.102;2023-06-24T06:35:30;4.10;;;3.70;;
30850;SDS011;17567;48.382;9.102;2023-06-24T06:40:31;4.20;;;3.80;;
30850;SDS011;17567;48.382;9.102;2023-06-24T06:45:32;5.17;;;4.10;;
30850;SDS011;17567;48.382;9.102;2023-06-24T06:50:32;3.93;;;3.63;;
30850;SDS011;17567;48.382;9.102;2023-06-24T06:55:34;4.20;;;3.80;;
30850;SDS011;17567;48.382;9.102;2023-06-24T07:00:39;4.30;;;3.90;;
30850;SDS011;17567;48.382;9.102;2023-06-24T07:05:42;3.90;;;3.50;;
30850;SDS011;17567;48.382;9.102;2023-06-24T07:10:43;4.63;;;3.47;;
30850;SDS011;17567;48.382;9.102;2023-06-24T07:15:46;4.20;;;3.80;;
30850;SDS011;17567;48.382;9.102;2023-06-24T07:20:46;4.17;;;3.87;;
30850;SDS011;17567;48.382;9.102;2023-06-24T07:25:48;4.90;;;4.40;;
30850;SDS011;17567;48.382;9.102;2023-06-24T07:30:49;4.20;;;3.80;;
30850;SDS011;17567;48.382;9.102;2023-06-24T07:35:50;4.03;;;3.73;;
30850;SDS011;17567;48.382;9.102;2023-06-24T07:40:50;5.30;;;4.10;;
30850;SDS011;17567;48.382;9.102;2023-06-24T07:45:51;8.07;;;4.93;;
30850;SDS011;17567;48.382;9.102;2023-06-24T07:50:51;5.27;;;4.53;;
30850;SDS011;17567;48.382;9.102;2023-06-24T07:55:52;4.70;;;3.80;;
30850;SDS011;17567;48.382;9.102;2023-06-24T08:00:53;4.57;;;4.17;;
30850;SDS011;17567;48.382;9.102;2023-06-24T08:05:53;6.17;;;4.43;;
30850;SDS011;17567;48.382;9.102;2023-06-24T08:10:54;4.90;;;4.27;;
30850;SDS011;17567;48.382;9.102;2023-06-24T08:15:55;6.47;;;4.30;;
30850;SDS011;17567;48.382;9.102;2023-06-24T08:20:55;5.17;;;4.03;;
30850;SDS011;17567;48.382;9.102;2023-06-24T08:25:56;4.90;;;4.40;;
30850;SDS011;17567;48.382;9.102;2023-06-24T08:30:57;5.43;;;4.30;;
30850;SDS011;17567;48.382;9.102;2023-06-24T08:35:57;4.33;;;3.93;;
30850;SDS011;17567;48.382;9.102;2023-06-24T08:40:58;4.87;;;4.03;;
30850;SDS011;17567;48.382;9.102;2023-06-24T08:45:59;3.50;;;3.20;;
30850;SDS011;17567;48.382;9.102;2023-06-24T08:50:59;3.72;;;3.33;;
30850;SDS011;17567;48.382;9.102;2023-06-24T08:56:02;4.97;;;3.50;;
30850;SDS011;17567;48.382;9.102;2023-06-24T09:01:03;4.25;;;3.55;;
30850;SDS011;17567;48.382;9.102;2023-06-24T09:06:04;4.35;;;3.55;;
30850;SDS011;17567;48.382;9.102;2023-06-24T09:11:04;3.75;;;3.28;;
30850;SDS011;17567;48.382;9.102;2023-06-24T09:16:14;4.18;;;3.80;;
30850;SDS011;17567;48.382;9.102;2023-06-24T09:21:22;4.57;;;3.63;;
30850;SDS011;17567;48.382;9.102;2023-06-24T09:26:25;4.35;;;3.70;;
30850;SDS011;17567;48.382;9.102;2023-06-24T09:31:26;3.72;;;3.40;;
30850;SDS011;17567;48.382;9.102;2023-06-24T09:36:29;3.60;;;3.30;;
30850;SDS011;17567;48.382;9.102;2023-06-24T09:41:30;3.53;;;3.10;;
30850;SDS011;17567;48.382;9.102;2023-06-24T09:46:31;3.45;;;3.15;;
30850;SDS011;17567;48.382;9.102;2023-06-24T09:56:54;5.03;;;3.30;;
30850;SDS011;17567;48.382;9.102;2023-06-24T10:01:55;3.88;;;3.58;;
30850;SDS011;17567;48.382;9.102;2023-06-24T10:06:57;5.32;;;3.90;;
30850;SDS011;17567;48.382;9.102;2023-06-24T10:11:58;3.53;;;3.22;;
30850;SDS011;17567;48.382;9.102;2023-06-24T10:17:01;2.95;;;2.72;;
30850;SDS011;17567;48.382;9.102;2023-06-24T10:22:02;3.70;;;3.40;;
30850;SDS011;17567;48.382;9.102;2023-06-24T10:27:03;3.08;;;2.83;;
30850;SDS011;17567;48.382;9.102;2023-06-24T10:32:08;3.50;;;2.83;;
30850;SDS011;17567;48.382;9.102;2023-06-24T10:47:39;3.55;;;3.25;;
30850;SDS011;17567;48.382;9.102;2023-06-24T10:52:43;3.10;;;2.90;;
30850;SDS011;17567;48.382;9.102;2023-06-24T10:57:45;5.88;;;3.03;;
30850;SDS011;17567;48.382;9.102;2023-06-24T11:02:46;3.33;;;3.03;;
30850;SDS011;17567;48.382;9.102;2023-06-24T11:07:47;3.40;;;3.10;;
30850;SDS011;17567;48.382;9.102;2023-06-24T11:12:48;2.95;;;2.75;;
30850;SDS011;17567;48.382;9.102;2023-06-24T11:17:50;3.33;;;3.03;;
30850;SDS011;17567;48.382;9.102;2023-06-24T11:22:52;3.53;;;3.22;;
30850;SDS011;17567;48.382;9.102;2023-06-24T11:27:53;3.50;;;3.20;;
30850;SDS011;17567;48.382;9.102;2023-06-24T11:32:54;3.15;;;2.90;;
30850;SDS011;17567;48.382;9.102;2023-06-24T11:37:57;4.18;;;3.22;;
30850;SDS011;17567;48.382;9.102;2023-06-24T11:43:00;3.22;;;3.03;;
30850;SDS011;17567;48.382;9.102;2023-06-24T11:48:02;3.58;;;3.28;;
30850;SDS011;17567;48.382;9.102;2023-06-24T11:53:04;3.30;;;3.00;;
30850;SDS011;17567;48.382;9.102;2023-06-24T11:58:05;3.40;;;3.10;;
30850;SDS011;17567;48.382;9.102;2023-06-24T12:03:07;3.13;;;2.83;;
30850;SDS011;17567;48.382;9.102;2023-06-24T12:08:10;3.08;;;2.78;;
30850;SDS011;17567;48.382;9.102;2023-06-24T12:13:14;2.88;;;2.67;;
30850;SDS011;17567;48.382;9.102;2023-06-24T12:18:15;3.08;;;2.88;;
30850;SDS011;17567;48.382;9.102;2023-06-24T12:23:16;3.53;;;3.08;;
30850;SDS011;17567;48.382;9.102;2023-06-24T12:28:17;2.92;;;2.63;;
30850;SDS011;17567;48.382;9.102;2023-06-24T12:33:18;3.00;;;2.80;;
30850;SDS011;17567;48.382;9.102;2023-06-24T12:38:21;2.80;;;2.60;;
30850;SDS011;17567;48.382;9.102;2023-06-24T12:43:22;3.95;;;2.90;;
30850;SDS011;17567;48.382;9.102;2023-06-24T12:48:22;3.53;;;3.20;;
30850;SDS011;17567;48.382;9.102;2023-06-24T12:53:23;3.38;;;3.08;;
30850;SDS011;17567;48.382;9.102;2023-06-24T12:58:24;3.20;;;2.90;;
30850;SDS011;17567;48.382;9.102;2023-06-24T13:03:26;3.28;;;2.97;;
30850;SDS011;17567;48.382;9.102;2023-06-24T13:08:27;3.38;;;3.08;;
30850;SDS011;17567;48.382;9.102;2023-06-24T13:13:28;3.00;;;2.80;;
30850;SDS011;17567;48.382;9.102;2023-06-24T13:18:29;3.30;;;2.83;;
30850;SDS011;17567;48.382;9.102;2023-06-24T13:23:30;4.40;;;3.10;;
30850;SDS011;17567;48.382;9.102;2023-06-24T13:28:31;5.07;;;3.03;;
30850;SDS011;17567;48.382;9.102;2023-06-24T13:33:32;3.50;;;3.20;;
30850;SDS011;17567;48.382;9.102;2023-06-24T13:38:33;3.30;;;3.00;;
30850;SDS011;17567;48.382;9.102;2023-06-24T13:43:34;3.20;;;3.00;;
30850;SDS011;17567;48.382;9.102;2023-06-24T13:48:35;3.22;;;2.90;;
30850;SDS011;17567;48.382;9.102;2023-06-24T13:53:36;3.30;;;3.00;;
30850;SDS011;17567;48.382;9.102;2023-06-24T13:58:37;4.95;;;3.17;;
30850;SDS011;17567;48.382;9.102;2023-06-24T14:03:38;3.30;;;2.95;;
30850;SDS011;17567;48.382;9.102;2023-06-24T14:08:39;3.88;;;2.85;;
30850;SDS011;17567;48.382;9.102;2023-06-24T14:13:40;3.38;;;3.08;;
30850;SDS011;17567;48.382;9.102;2023-06-24T14:18:41;2.75;;;2.55;;
30850;SDS011;17567;48.382;9.102;2023-06-24T14:23:43;4.03;;;2.95;;
30850;SDS011;17567;48.382;9.102;2023-06-24T14:28:44;3.10;;;2.90;;
30850;SDS011;17567;48.382;9.102;2023-06-24T14:33:45;3.35;;;3.05;;
30850;SDS011;17567;48.382;9.102;2023-06-24T14:38:46;3.95;;;2.85;;
30850;SDS011;17567;48.382;9.102;2023-06-24T14:43:47;3.17;;;2.95;;
30850;SDS011;17567;48.382;9.102;2023-06-24T14:48:48;3.15;;;2.95;;
30850;SDS011;17567;48.382;9.102;2023-06-24T14:53:49;2.88;;;2.60;;
30850;SDS011;17567;48.382;9.102;2023-06-24T14:58:50;3.70;;;3.08;;
30850;SDS011;17567;48.382;9.102;2023-06-24T15:03:51;3.35;;;3.05;;
30850;SDS011;17567;48.382;9.102;2023-06-24T15:08:52;5.13;;;4.68;;
30850;SDS011;17567;48.382;9.102;2023-06-24T15:13:54;4.70;;;2.60;;
30850;SDS011;17567;48.382;9.102;2023-06-24T15:18:55;3.78;;;2.88;;
30850;SDS011;17567;48.382;9.102;2023-06-24T15:23:56;3.45;;;3.25;;
30850;SDS011;17567;48.382;9.102;2023-06-24T15:28:57;3.25;;;3.03;;
30850;SDS011;17567;48.382;9.102;2023-06-24T15:33:59;2.95;;;2.75;;
30850;SDS011;17567;48.382;9.102;2023-06-24T15:39:00;4.07;;;3.42;;
30850;SDS011;17567;48.382;9.102;2023-06-24T15:44:02;3.45;;;2.90;;
30850;SDS011;17567;48.382;9.102;2023-06-24T15:49:05;4.40;;;2.97;;
30850;SDS011;17567;48.382;9.102;2023-06-24T15:54:06;3.88;;;2.83;;
30850;SDS011;17567;48.382;9.102;2023-06-24T15:59:07;3.20;;;2.88;;
30850;SDS011;17567;48.382;9.102;2023-06-24T16:04:08;2.90;;;2.70;;
30850;SDS011;17567;48.382;9.102;2023-06-24T16:09:09;3.15;;;2.95;;
30850;SDS011;17567;48.382;9.102;2023-06-24T16:14:10;4.22;;;3.88;;
30850;SDS011;17567;48.382;9.102;2023-06-24T16:19:11;4.18;;;3.13;;
30850;SDS011;17567;48.382;9.102;2023-06-24T16:24:12;3.10;;;2.88;;
30850;SDS011;17567;48.382;9.102;2023-06-24T16:29:13;3.35;;;3.05;;
30850;SDS011;17567;48.382;9.102;2023-06-24T16:34:14;3.58;;;3.28;;
30850;SDS011;17567;48.382;9.102;2023-06-24T16:39:15;3.22;;;2.97;;
30850;SDS011;17567;48.382;9.102;2023-06-24T16:44:16;3.33;;;3.03;;
30850;SDS011;17567;48.382;9.102;2023-06-24T16:49:17;5.03;;;3.20;;
30850;SDS011;17567;48.382;9.102;2023-06-24T16:54:18;3.15;;;2.80;;
30850;SDS011;17567;48.382;9.102;2023-06-24T16:59:21;3.97;;;2.72;;
30850;SDS011;17567;48.382;9.102;2023-06-24T17:04:22;3.33;;;3.03;;
30850;SDS011;17567;48.382;9.102;2023-06-24T17:09:23;3.20;;;2.88;;
30850;SDS011;17567;48.382;9.102;2023-06-24T17:14:24;3.55;;;3.33;;
30850;SDS011;17567;48.382;9.102;2023-06-24T17:19:25;6.78;;;3.17;;
30850;SDS011;17567;48.382;9.102;2023-06-24T17:24:26;4.47;;;3.00;;
30850;SDS011;17567;48.382;9.102;2023-06-24T17:29:27;6.18;;;5.55;;
30850;SDS011;17567;48.382;9.102;2023-06-24T17:34:28;3.30;;;3.05;;
30850;SDS011;17567;48.382;9.102;2023-06-24T17:39:29;5.82;;;3.20;;
30850;SDS011;17567;48.382;9.102;2023-06-24T17:44:30;3.20;;;2.97;;
30850;SDS011;17567;48.382;9.102;2023-06-24T17:49:31;2.90;;;2.70;;
30850;SDS011;17567;48.382;9.102;2023-06-24T17:54:32;3.35;;;3.05;;
30850;SDS011;17567;48.382;9.102;2023-06-24T17:59:33;3.88;;;3.38;;
30850;SDS011;17567;48.382;9.102;2023-06-24T18:04:34;3.40;;;3.10;;
30850;SDS011;17567;48.382;9.102;2023-06-24T18:09:35;3.25;;;2.97;;
30850;SDS011;17567;48.382;9.102;2023-06-24T18:14:36;4.13;;;3.08;;
30850;SDS011;17567;48.382;9.102;2023-06-24T18:19:37;3.30;;;3.10;;
30850;SDS011;17567;48.382;9.102;2023-06-24T18:24:42;6.68;;;3.80;;
30850;SDS011;17567;48.382;9.102;2023-06-24T18:29:43;5.28;;;3.30;;
30850;SDS011;17567;48.382;9.102;2023-06-24T18:34:44;9.80;;;3.85;;
30850;SDS011;17567;48.382;9.102;2023-06-24T18:39:45;4.50;;;3.45;;
30850;SDS011;17567;48.382;9.102;2023-06-24T18:44:46;3.28;;;2.97;;
30850;SDS011;17567;48.382;9.102;2023-06-24T18:49:47;4.07;;;2.83;;
30850;SDS011;17567;48.382;9.102;2023-06-24T18:54:48;4.22;;;3.65;;
30850;SDS011;17567;48.382;9.102;2023-06-24T18:59:49;4.90;;;3.72;;
30850;SDS011;17567;48.382;9.102;2023-06-24T19:04:50;3.83;;;3.53;;
30850;SDS011;17567;48.382;9.102;2023-06-24T19:09:51;9.15;;;3.78;;
30850;SDS011;17567;48.382;9.102;2023-06-24T19:14:52;3.75;;;3.42;;
30850;SDS011;17567;48.382;9.102;2023-06-24T19:19:53;4.00;;;3.70;;
30850;SDS011;17567;48.382;9.102;2023-06-24T19:24:53;3.70;;;3.40;;
30850;SDS011;17567;48.382;9.102;2023-06-24T19:29:54;4.32;;;3.78;;
30850;SDS011;17567;48.382;9.102;2023-06-24T19:34:55;4.28;;;3.88;;
30850;SDS011;17567;48.382;9.102;2023-06-24T19:39:56;3.90;;;3.60;;
30850;SDS011;17567;48.382;9.102;2023-06-24T19:44:57;4.22;;;3.83;;
30850;SDS011;17567;48.382;9.102;2023-06-24T19:49:57;4.30;;;4.00;;
30850;SDS011;17567;48.382;9.102;2023-06-24T19:54:58;7.15;;;4.60;;
30850;SDS011;17567;48.382;9.102;2023-06-24T19:59:59;5.72;;;5.22;;
30850;SDS011;17567;48.382;9.102;2023-06-24T20:05:00;5.47;;;4.85;;
30850;SDS011;17567;48.382;9.102;2023-06-24T20:10:00;6.63;;;4.80;;
30850;SDS011;17567;48.382;9.102;2023-06-24T20:15:01;9.02;;;6.10;;
30850;SDS011;17567;48.382;9.102;2023-06-24T20:20:02;7.28;;;6.57;;
30850;SDS011;17567;48.382;9.102;2023-06-24T20:25:05;6.57;;;5.97;;
30850;SDS011;17567;48.382;9.102;2023-06-24T20:30:06;5.00;;;4.50;;
30850;SDS011;17567;48.382;9.102;2023-06-24T20:35:07;4.80;;;4.40;;
30850;SDS011;17567;48.382;9.102;2023-06-24T20:40:08;4.70;;;3.85;;
30850;SDS011;17567;48.382;9.102;2023-06-24T20:45:09;4.32;;;4.00;;
30850;SDS011;17567;48.382;9.102;2023-06-24T20:50:10;5.30;;;4.90;;
30850;SDS011;17567;48.382;9.102;2023-06-24T20:55:11;5.20;;;4.80;;
30850;SDS011;17567;48.382;9.102;2023-06-24T21:00:12;5.60;;;5.10;;
30850;SDS011;17567;48.382;9.102;2023-06-24T21:05:13;4.70;;;4.30;;
30850;SDS011;17567;48.382;9.102;2023-06-24T21:10:14;4.85;;;4.45;;
30850;SDS011;17567;48.382;9.102;2023-06-24T21:15:15;5.30;;;4.80;;
30850;SDS011;17567;48.382;9.102;2023-06-24T21:20:17;5.80;;;5.30;;
30850;SDS011;17567;48.382;9.102;2023-06-24T21:25:17;5.50;;;5.00;;
30850;SDS011;17567;48.382;9.102;2023-06-24T21:30:18;4.80;;;4.30;;
30850;SDS011;17567;48.382;9.102;2023-06-24T21:35:18;4.63;;;4.03;;
30850;SDS011;17567;48.382;9.102;2023-06-24T21:40:19;4.97;;;4.47;;
30850;SDS011;17567;48.382;9.102;2023-06-24T21:45:20;4.80;;;4.40;;
30850;SDS011;17567;48.382;9.102;2023-06-24T21:50:21;5.67;;;4.50;;
30850;SDS011;17567;48.382;9.102;2023-06-24T21:55:21;4.57;;;4.17;;
30850;SDS011;17567;48.382;9.102;2023-06-24T22:00:22;4.83;;;4.43;;
30850;SDS011;17567;48.382;9.102;2023-06-24T22:05:22;5.40;;;4.37;;
30850;SDS011;17567;48.382;9.102;2023-06-24T22:10:23;5.40;;;5.00;;
30850;SDS011;17567;48.382;9.102;2023-06-24T22:15:24;4.80;;;4.40;;
30850;SDS011;17567;48.382;9.102;2023-06-24T22:20:25;7.10;;;4.80;;
30850;SDS011;17567;48.382;9.102;2023-06-24T22:25:25;5.17;;;4.67;;
30850;SDS011;17567;48.382;9.102;2023-06-24T22:30:26;4.90;;;4.50;;
30850;SDS011;17567;48.382;9.102;2023-06-24T22:35:26;9.07;;;5.20;;
30850;SDS011;17567;48.382;9.102;2023-06-24T22:40:27;5.10;;;4.70;;
30850;SDS011;17567;48.382;9.102;2023-06-24T22:45:28;5.07;;;4.60;;
30850;SDS011;17567;48.382;9.102;2023-06-24T22:50:28;5.73;;;5.23;;
30850;SDS011;17567;48.382;9.102;2023-06-24T22:55:30;4.93;;;4.53;;
30850;SDS011;17567;48.382;9.102;2023-06-24T23:00:31;5.73;;;4.60;;
30850;SDS011;17567;48.382;9.102;2023-06-24T23:05:34;5.20;;;4.80;;
30850;SDS011;17567;48.382;9.102;2023-06-24T23:10:35;5.10;;;4.70;;
30850;SDS011;17567;48.382;9.102;2023-06-24T23:15:36;5.43;;;5.00;;
30850;SDS011;17567;48.382;9.102;2023-06-24T23:20:37;5.13;;;4.63;;
30850;SDS011;17567;48.382;9.102;2023-06-24T23:25:41;6.47;;;5.00;;
30850;SDS011;17567;48.382;9.102;2023-06-24T23:30:45;5.13;;;4.63;;
30850;SDS011;17567;48.382;9.102;2023-06-24T23:35:49;8.67;;;5.00;;
30850;SDS011;17567;48.382;9.102;2023-06-24T23:40:50;6.03;;;5.43;;
30850;SDS011;17567;48.382;9.102;2023-06-24T23:45:51;8.43;;;4.93;;
30850;SDS011;17567;48.382;9.102;2023-06-24T23:50:52;5.30;;;4.87;;
30850;SDS011;17567;48.382;9.102;2023-06-24T23:55:53;6.43;;;5.27;;
